sensor_id;sensor_type;location;lat;lon;timestamp;pressure;altitude;pressure_sealevel;temperature;humidity
62592;BME280;48659;41.622;2.276;2023-02-20T00:00:55;100849.51;;;10.03;43.22
62592;BME280;48659;41.622;2.276;2023-02-20T00:03:22;100852.26;;;9.39;43.88
62592;BME280;48659;41.622;2.276;2023-02-20T00:05:50;100846.72;;;9.60;43.97
62592;BME280;48659;41.622;2.276;2023-02-20T00:08:18;100852.54;;;10.03;43.62
62592;BME280;48659;41.622;2.276;2023-02-20T00:10:46;100852.59;;;9.94;43.43
62592;BME280;48659;41.622;2.276;2023-02-20T00:13:13;100853.37;;;9.75;44.18
62592;BME280;48659;41.622;2.276;2023-02-20T00:15:40;100853.19;;;9.31;44.07
62592;BME280;48659;41.622;2.276;2023-02-20T00:18:07;100851.24;;;10.08;43.92
62592;BME280;48659;41.622;2.276;2023-02-20T00:20:35;100850.34;;;9.59;44.41
62592;BME280;48659;41.622;2.276;2023-02-20T00:23:02;100854.45;;;9.34;44.89
62592;BME280;48659;41.622;2.276;2023-02-20T00:25:29;100855.86;;;9.70;44.12
62592;BME280;48659;41.622;2.276;2023-02-20T00:27:58;100856.88;;;9.28;44.69
62592;BME280;48659;41.622;2.276;2023-02-20T00:30:29;100852.64;;;9.00;44.46
62592;BME280;48659;41.622;2.276;2023-02-20T00:32:57;100849.30;;;9.35;44.65
62592;BME280;48659;41.622;2.276;2023-02-20T00:35:28;100845.44;;;8.93;44.69
62592;BME280;48659;41.622;2.276;2023-02-20T00:37:55;100844.33;;;9.56;43.96
62592;BME280;48659;41.622;2.276;2023-02-20T00:40:24;100842.93;;;9.99;43.87
62592;BME280;48659;41.622;2.276;2023-02-20T00:42:52;100844.27;;;9.54;43.78
62592;BME280;48659;41.622;2.276;2023-02-20T00:45:21;100843.41;;;9.41;43.99
62592;BME280;48659;41.622;2.276;2023-02-20T00:47:48;100846.32;;;8.68;45.68
62592;BME280;48659;41.622;2.276;2023-02-20T00:50:17;100842.29;;;9.90;43.43
62592;BME280;48659;41.622;2.276;2023-02-20T00:52:45;100843.13;;;9.73;43.69
62592;BME280;48659;41.622;2.276;2023-02-20T00:55:13;100844.56;;;8.88;44.67
62592;BME280;48659;41.622;2.276;2023-02-20T00:57:41;100846.07;;;8.94;44.53
62592;BME280;48659;41.622;2.276;2023-02-20T01:00:17;100849.36;;;8.80;44.94
62592;BME280;48659;41.622;2.276;2023-02-20T01:02:45;100847.83;;;8.56;45.19
62592;BME280;48659;41.622;2.276;2023-02-20T01:05:12;100850.44;;;8.54;45.54
62592;BME280;48659;41.622;2.276;2023-02-20T01:07:40;100848.44;;;8.03;46.17
62592;BME280;48659;41.622;2.276;2023-02-20T01:10:09;100843.01;;;9.20;45.00
62592;BME280;48659;41.622;2.276;2023-02-20T01:12:37;100844.19;;;9.31;44.21
62592;BME280;48659;41.622;2.276;2023-02-20T01:15:06;100849.06;;;8.75;45.17
62592;BME280;48659;41.622;2.276;2023-02-20T01:17:34;100848.87;;;8.72;45.41
62592;BME280;48659;41.622;2.276;2023-02-20T01:20:01;100844.81;;;8.83;45.70
62592;BME280;48659;41.622;2.276;2023-02-20T01:22:29;100853.88;;;7.46;47.90
62592;BME280;48659;41.622;2.276;2023-02-20T01:24:56;100850.87;;;7.91;46.40
62592;BME280;48659;41.622;2.276;2023-02-20T01:27:23;100849.57;;;5.87;50.61
62592;BME280;48659;41.622;2.276;2023-02-20T01:29:50;100851.54;;;6.01;52.28
62592;BME280;48659;41.622;2.276;2023-02-20T01:32:18;100845.51;;;7.69;48.06
62592;BME280;48659;41.622;2.276;2023-02-20T01:34:45;100843.30;;;8.28;46.86
62592;BME280;48659;41.622;2.276;2023-02-20T01:37:13;100835.76;;;9.13;45.65
62592;BME280;48659;41.622;2.276;2023-02-20T01:39:42;100833.01;;;8.48;46.04
62592;BME280;48659;41.622;2.276;2023-02-20T01:42:13;100833.23;;;9.31;44.60
62592;BME280;48659;41.622;2.276;2023-02-20T01:44:42;100842.37;;;6.79;49.29
62592;BME280;48659;41.622;2.276;2023-02-20T01:47:13;100840.05;;;6.48;51.50
62592;BME280;48659;41.622;2.276;2023-02-20T01:49:44;100838.36;;;7.83;47.89
62592;BME280;48659;41.622;2.276;2023-02-20T01:52:16;100835.44;;;7.57;47.68
62592;BME280;48659;41.622;2.276;2023-02-20T01:54:49;100826.74;;;8.45;46.09
62592;BME280;48659;41.622;2.276;2023-02-20T01:57:21;100823.79;;;8.84;45.65
62592;BME280;48659;41.622;2.276;2023-02-20T01:59:53;100820.17;;;8.57;45.68
62592;BME280;48659;41.622;2.276;2023-02-20T02:02:23;100818.65;;;8.62;45.54
62592;BME280;48659;41.622;2.276;2023-02-20T02:04:52;100818.91;;;8.47;45.72
62592;BME280;48659;41.622;2.276;2023-02-20T02:07:20;100818.33;;;8.47;45.66
62592;BME280;48659;41.622;2.276;2023-02-20T02:09:51;100826.98;;;7.31;48.52
62592;BME280;48659;41.622;2.276;2023-02-20T02:12:20;100821.28;;;8.11;47.17
62592;BME280;48659;41.622;2.276;2023-02-20T02:14:48;100813.21;;;8.57;45.75
62592;BME280;48659;41.622;2.276;2023-02-20T02:17:34;100811.53;;;8.63;46.33
62592;BME280;48659;41.622;2.276;2023-02-20T02:20:48;100808.62;;;9.15;45.67
62592;BME280;48659;41.622;2.276;2023-02-20T02:23:52;100802.60;;;8.80;45.27
62592;BME280;48659;41.622;2.276;2023-02-20T02:28:05;100800.56;;;9.11;44.76
62592;BME280;48659;41.622;2.276;2023-02-20T02:30:50;100795.32;;;9.20;44.70
62592;BME280;48659;41.622;2.276;2023-02-20T02:36:00;100789.66;;;8.65;45.83
62592;BME280;48659;41.622;2.276;2023-02-20T02:38:40;100789.60;;;8.63;45.78
62592;BME280;48659;41.622;2.276;2023-02-20T02:41:19;100799.14;;;7.40;49.60
62592;BME280;48659;41.622;2.276;2023-02-20T02:43:52;100795.96;;;7.46;48.46
62592;BME280;48659;41.622;2.276;2023-02-20T02:46:27;100793.42;;;7.26;47.90
62592;BME280;48659;41.622;2.276;2023-02-20T02:49:00;100798.17;;;7.20;49.17
62592;BME280;48659;41.622;2.276;2023-02-20T02:51:35;100787.04;;;8.12;47.15
62592;BME280;48659;41.622;2.276;2023-02-20T02:54:05;100787.64;;;8.01;48.08
62592;BME280;48659;41.622;2.276;2023-02-20T02:56:34;100792.35;;;6.94;49.26
62592;BME280;48659;41.622;2.276;2023-02-20T02:59:02;100789.05;;;7.44;49.29
62592;BME280;48659;41.622;2.276;2023-02-20T03:01:33;100785.35;;;6.72;50.69
62592;BME280;48659;41.622;2.276;2023-02-20T03:04:04;100783.49;;;7.81;48.32
62592;BME280;48659;41.622;2.276;2023-02-20T03:06:36;100781.48;;;7.53;48.14
62592;BME280;48659;41.622;2.276;2023-02-20T03:09:07;100779.12;;;6.21;50.45
62592;BME280;48659;41.622;2.276;2023-02-20T03:11:37;100776.59;;;5.90;52.04
62592;BME280;48659;41.622;2.276;2023-02-20T03:14:09;100776.83;;;6.62;50.62
62592;BME280;48659;41.622;2.276;2023-02-20T03:16:43;100781.94;;;6.83;50.03
62592;BME280;48659;41.622;2.276;2023-02-20T03:19:13;100779.82;;;7.60;48.38
62592;BME280;48659;41.622;2.276;2023-02-20T03:21:45;100781.38;;;7.44;47.82
62592;BME280;48659;41.622;2.276;2023-02-20T03:24:15;100785.25;;;7.07;49.69
62592;BME280;48659;41.622;2.276;2023-02-20T03:26:45;100778.80;;;7.80;47.80
62592;BME280;48659;41.622;2.276;2023-02-20T03:29:15;100775.21;;;7.74;47.70
62592;BME280;48659;41.622;2.276;2023-02-20T03:31:49;100771.08;;;8.24;46.78
62592;BME280;48659;41.622;2.276;2023-02-20T03:34:20;100774.93;;;7.94;47.21
62592;BME280;48659;41.622;2.276;2023-02-20T03:36:54;100775.06;;;7.45;47.38
62592;BME280;48659;41.622;2.276;2023-02-20T03:39:25;100774.37;;;7.32;47.08
62592;BME280;48659;41.622;2.276;2023-02-20T03:41:55;100771.30;;;7.78;47.33
62592;BME280;48659;41.622;2.276;2023-02-20T03:44:24;100770.13;;;7.18;47.88
62592;BME280;48659;41.622;2.276;2023-02-20T03:46:52;100767.75;;;7.72;46.97
62592;BME280;48659;41.622;2.276;2023-02-20T03:49:25;100766.97;;;7.69;46.98
62592;BME280;48659;41.622;2.276;2023-02-20T03:51:54;100773.40;;;7.26;47.53
62592;BME280;48659;41.622;2.276;2023-02-20T03:54:22;100774.44;;;5.66;50.95
62592;BME280;48659;41.622;2.276;2023-02-20T03:56:52;100776.56;;;6.98;49.19
62592;BME280;48659;41.622;2.276;2023-02-20T03:59:24;100773.99;;;7.02;48.84
62592;BME280;48659;41.622;2.276;2023-02-20T04:01:55;100775.38;;;7.25;47.86
62592;BME280;48659;41.622;2.276;2023-02-20T04:04:29;100775.86;;;7.26;47.16
62592;BME280;48659;41.622;2.276;2023-02-20T04:06:58;100780.59;;;7.55;47.59
62592;BME280;48659;41.622;2.276;2023-02-20T04:09:31;100780.03;;;7.75;46.55
62592;BME280;48659;41.622;2.276;2023-02-20T04:12:05;100782.39;;;7.63;46.99
62592;BME280;48659;41.622;2.276;2023-02-20T04:14:34;100782.40;;;7.81;46.84
62592;BME280;48659;41.622;2.276;2023-02-20T04:17:07;100782.47;;;7.81;46.83
62592;BME280;48659;41.622;2.276;2023-02-20T04:19:36;100784.08;;;8.19;46.43
62592;BME280;48659;41.622;2.276;2023-02-20T04:22:07;100785.59;;;7.51;46.51
62592;BME280;48659;41.622;2.276;2023-02-20T04:24:40;100787.05;;;6.70;48.92
62592;BME280;48659;41.622;2.276;2023-02-20T04:27:10;100790.19;;;7.23;48.00
62592;BME280;48659;41.622;2.276;2023-02-20T04:29:38;100794.82;;;7.09;47.76
62592;BME280;48659;41.622;2.276;2023-02-20T04:32:06;100794.88;;;7.54;47.30
62592;BME280;48659;41.622;2.276;2023-02-20T04:34:33;100795.07;;;7.45;47.01
62592;BME280;48659;41.622;2.276;2023-02-20T04:37:05;100795.84;;;7.69;47.51
62592;BME280;48659;41.622;2.276;2023-02-20T04:39:33;100798.13;;;6.97;47.82
62592;BME280;48659;41.622;2.276;2023-02-20T04:42:01;100800.98;;;7.35;47.61
62592;BME280;48659;41.622;2.276;2023-02-20T04:44:28;100802.79;;;6.98;47.85
62592;BME280;48659;41.622;2.276;2023-02-20T04:46:56;100802.35;;;6.92;48.32
62592;BME280;48659;41.622;2.276;2023-02-20T04:49:24;100805.42;;;6.96;47.94
62592;BME280;48659;41.622;2.276;2023-02-20T04:51:52;100805.52;;;7.43;47.62
62592;BME280;48659;41.622;2.276;2023-02-20T04:54:20;100803.92;;;7.75;47.24
62592;BME280;48659;41.622;2.276;2023-02-20T04:56:53;100802.43;;;7.87;46.69
62592;BME280;48659;41.622;2.276;2023-02-20T04:59:21;100799.53;;;8.30;46.26
62592;BME280;48659;41.622;2.276;2023-02-20T05:01:49;100800.74;;;7.68;46.69
62592;BME280;48659;41.622;2.276;2023-02-20T05:04:16;100800.46;;;7.96;46.30
62592;BME280;48659;41.622;2.276;2023-02-20T05:06:47;100800.62;;;7.99;46.58
62592;BME280;48659;41.622;2.276;2023-02-20T05:09:15;100800.71;;;7.69;46.96
62592;BME280;48659;41.622;2.276;2023-02-20T05:11:42;100807.52;;;7.63;47.28
62592;BME280;48659;41.622;2.276;2023-02-20T05:14:10;100810.72;;;7.20;47.76
62592;BME280;48659;41.622;2.276;2023-02-20T05:16:38;100808.83;;;7.51;47.80
62592;BME280;48659;41.622;2.276;2023-02-20T05:19:06;100811.18;;;7.29;48.14
62592;BME280;48659;41.622;2.276;2023-02-20T05:21:34;100808.07;;;7.90;47.30
62592;BME280;48659;41.622;2.276;2023-02-20T05:24:01;100807.67;;;7.59;48.07
62592;BME280;48659;41.622;2.276;2023-02-20T05:26:28;100806.68;;;7.31;47.99
62592;BME280;48659;41.622;2.276;2023-02-20T05:28:55;100806.59;;;7.35;47.90
62592;BME280;48659;41.622;2.276;2023-02-20T05:31:22;100810.48;;;7.03;48.18
62592;BME280;48659;41.622;2.276;2023-02-20T05:33:50;100813.02;;;7.69;47.94
62592;BME280;48659;41.622;2.276;2023-02-20T05:36:17;100816.81;;;8.13;46.92
62592;BME280;48659;41.622;2.276;2023-02-20T05:38:44;100823.27;;;7.24;48.61
62592;BME280;48659;41.622;2.276;2023-02-20T05:41:12;100817.85;;;7.37;48.10
62592;BME280;48659;41.622;2.276;2023-02-20T05:43:39;100816.53;;;7.33;48.50
62592;BME280;48659;41.622;2.276;2023-02-20T05:46:06;100817.37;;;7.40;48.56
62592;BME280;48659;41.622;2.276;2023-02-20T05:48:34;100823.45;;;7.30;48.28
62592;BME280;48659;41.622;2.276;2023-02-20T05:51:03;100827.66;;;7.38;47.91
62592;BME280;48659;41.622;2.276;2023-02-20T05:53:31;100825.95;;;7.12;48.70
62592;BME280;48659;41.622;2.276;2023-02-20T05:55:59;100823.85;;;7.47;48.37
62592;BME280;48659;41.622;2.276;2023-02-20T05:58:27;100825.67;;;4.37;53.63
62592;BME280;48659;41.622;2.276;2023-02-20T06:00:54;100826.56;;;3.73;56.64
62592;BME280;48659;41.622;2.276;2023-02-20T06:03:22;100821.04;;;5.31;53.19
62592;BME280;48659;41.622;2.276;2023-02-20T06:05:49;100821.19;;;5.50;53.66
62592;BME280;48659;41.622;2.276;2023-02-20T06:08:16;100817.96;;;6.53;50.84
62592;BME280;48659;41.622;2.276;2023-02-20T06:10:44;100822.55;;;7.47;50.31
62592;BME280;48659;41.622;2.276;2023-02-20T06:13:12;100817.61;;;8.17;47.34
62592;BME280;48659;41.622;2.276;2023-02-20T06:15:40;100818.09;;;7.66;47.82
62592;BME280;48659;41.622;2.276;2023-02-20T06:18:07;100817.94;;;5.60;51.88
62592;BME280;48659;41.622;2.276;2023-02-20T06:20:35;100817.86;;;4.70;55.06
62592;BME280;48659;41.622;2.276;2023-02-20T06:23:02;100813.41;;;5.44;53.05
62592;BME280;48659;41.622;2.276;2023-02-20T06:25:30;100819.82;;;5.90;52.20
62592;BME280;48659;41.622;2.276;2023-02-20T06:27:57;100819.63;;;6.55;50.68
62592;BME280;48659;41.622;2.276;2023-02-20T06:30:24;100817.38;;;6.90;49.45
62592;BME280;48659;41.622;2.276;2023-02-20T06:32:51;100818.10;;;7.33;48.71
62592;BME280;48659;41.622;2.276;2023-02-20T06:35:18;100818.32;;;8.25;47.67
62592;BME280;48659;41.622;2.276;2023-02-20T06:37:46;100822.60;;;7.44;47.97
62592;BME280;48659;41.622;2.276;2023-02-20T06:40:13;100823.16;;;7.77;48.05
62592;BME280;48659;41.622;2.276;2023-02-20T06:42:41;100824.54;;;7.66;48.16
62592;BME280;48659;41.622;2.276;2023-02-20T06:45:08;100824.79;;;7.59;47.86
62592;BME280;48659;41.622;2.276;2023-02-20T06:47:36;100825.79;;;7.68;47.65
62592;BME280;48659;41.622;2.276;2023-02-20T06:50:05;100827.65;;;6.00;51.93
62592;BME280;48659;41.622;2.276;2023-02-20T06:52:32;100826.28;;;6.09;50.63
62592;BME280;48659;41.622;2.276;2023-02-20T06:54:59;100834.20;;;4.71;55.17
62592;BME280;48659;41.622;2.276;2023-02-20T06:57:27;100827.37;;;6.39;51.24
62592;BME280;48659;41.622;2.276;2023-02-20T06:59:55;100828.09;;;7.13;49.45
62592;BME280;48659;41.622;2.276;2023-02-20T07:02:23;100830.58;;;7.66;47.50
62592;BME280;48659;41.622;2.276;2023-02-20T07:04:50;100826.36;;;8.72;46.62
62592;BME280;48659;41.622;2.276;2023-02-20T07:07:18;100828.99;;;9.13;45.13
62592;BME280;48659;41.622;2.276;2023-02-20T07:09:45;100830.41;;;8.69;45.17
62592;BME280;48659;41.622;2.276;2023-02-20T07:12:13;100830.94;;;9.11;44.35
62592;BME280;48659;41.622;2.276;2023-02-20T07:14:41;100838.91;;;8.85;44.95
62592;BME280;48659;41.622;2.276;2023-02-20T07:17:08;100840.91;;;8.39;45.95
62592;BME280;48659;41.622;2.276;2023-02-20T07:19:35;100848.74;;;8.99;45.42
62592;BME280;48659;41.622;2.276;2023-02-20T07:22:02;100857.31;;;8.57;46.16
62592;BME280;48659;41.622;2.276;2023-02-20T07:24:29;100858.44;;;7.80;46.42
62592;BME280;48659;41.622;2.276;2023-02-20T07:26:56;100854.55;;;8.88;45.54
62592;BME280;48659;41.622;2.276;2023-02-20T07:29:23;100849.75;;;9.33;44.41
62592;BME280;48659;41.622;2.276;2023-02-20T07:31:51;100846.66;;;9.82;44.16
62592;BME280;48659;41.622;2.276;2023-02-20T07:34:19;100851.19;;;9.73;44.35
62592;BME280;48659;41.622;2.276;2023-02-20T07:36:46;100855.95;;;9.39;44.39
62592;BME280;48659;41.622;2.276;2023-02-20T07:39:13;100856.03;;;9.51;45.41
62592;BME280;48659;41.622;2.276;2023-02-20T07:41:41;100855.43;;;9.19;45.43
62592;BME280;48659;41.622;2.276;2023-02-20T07:44:08;100856.43;;;10.21;44.19
62592;BME280;48659;41.622;2.276;2023-02-20T07:46:36;100857.98;;;9.93;43.75
62592;BME280;48659;41.622;2.276;2023-02-20T07:49:04;100856.78;;;10.41;44.28
62592;BME280;48659;41.622;2.276;2023-02-20T07:51:32;100860.85;;;9.74;43.76
62592;BME280;48659;41.622;2.276;2023-02-20T07:54:00;100861.99;;;9.92;44.22
62592;BME280;48659;41.622;2.276;2023-02-20T07:56:28;100864.68;;;10.46;43.69
62592;BME280;48659;41.622;2.276;2023-02-20T07:58:56;100868.76;;;10.66;43.72
62592;BME280;48659;41.622;2.276;2023-02-20T08:01:28;100866.74;;;10.36;43.11
62592;BME280;48659;41.622;2.276;2023-02-20T08:03:56;100863.70;;;11.13;42.82
62592;BME280;48659;41.622;2.276;2023-02-20T08:06:27;100864.15;;;10.84;42.28
62592;BME280;48659;41.622;2.276;2023-02-20T08:08:55;100866.05;;;10.93;42.82
62592;BME280;48659;41.622;2.276;2023-02-20T08:11:22;100863.85;;;11.09;42.04
62592;BME280;48659;41.622;2.276;2023-02-20T08:13:50;100860.88;;;11.17;41.68
62592;BME280;48659;41.622;2.276;2023-02-20T08:16:17;100865.08;;;11.69;41.10
62592;BME280;48659;41.622;2.276;2023-02-20T08:18:45;100865.09;;;11.72;42.03
62592;BME280;48659;41.622;2.276;2023-02-20T08:21:12;100864.90;;;11.49;41.59
62592;BME280;48659;41.622;2.276;2023-02-20T08:23:40;100866.99;;;12.28;41.38
62592;BME280;48659;41.622;2.276;2023-02-20T08:26:07;100867.08;;;11.85;41.23
62592;BME280;48659;41.622;2.276;2023-02-20T08:28:35;100867.71;;;11.76;41.32
62592;BME280;48659;41.622;2.276;2023-02-20T08:31:03;100867.60;;;11.99;41.69
62592;BME280;48659;41.622;2.276;2023-02-20T08:33:30;100867.62;;;12.19;41.80
62592;BME280;48659;41.622;2.276;2023-02-20T08:35:58;100864.29;;;12.92;43.99
62592;BME280;48659;41.622;2.276;2023-02-20T08:38:28;100864.06;;;12.61;43.71
62592;BME280;48659;41.622;2.276;2023-02-20T08:40:56;100858.38;;;12.90;39.35
62592;BME280;48659;41.622;2.276;2023-02-20T08:43:24;100849.97;;;12.76;39.10
62592;BME280;48659;41.622;2.276;2023-02-20T08:45:52;100850.07;;;12.91;42.38
62592;BME280;48659;41.622;2.276;2023-02-20T08:48:20;100854.81;;;13.45;39.73
62592;BME280;48659;41.622;2.276;2023-02-20T08:50:48;100853.41;;;13.05;38.25
62592;BME280;48659;41.622;2.276;2023-02-20T08:53:15;100852.91;;;12.96;38.05
62592;BME280;48659;41.622;2.276;2023-02-20T08:55:42;100851.44;;;13.52;39.32
62592;BME280;48659;41.622;2.276;2023-02-20T08:58:11;100850.51;;;13.49;38.84
62592;BME280;48659;41.622;2.276;2023-02-20T09:00:39;100854.35;;;13.41;37.35
62592;BME280;48659;41.622;2.276;2023-02-20T09:03:07;100854.08;;;14.00;37.35
62592;BME280;48659;41.622;2.276;2023-02-20T09:05:34;100851.70;;;14.10;36.33
62592;BME280;48659;41.622;2.276;2023-02-20T09:08:02;100854.71;;;14.28;36.35
62592;BME280;48659;41.622;2.276;2023-02-20T09:10:30;100855.92;;;13.54;37.31
62592;BME280;48659;41.622;2.276;2023-02-20T09:12:57;100855.89;;;13.93;36.98
62592;BME280;48659;41.622;2.276;2023-02-20T09:15:27;100854.18;;;13.15;37.37
62592;BME280;48659;41.622;2.276;2023-02-20T09:17:55;100850.50;;;12.52;37.96
62592;BME280;48659;41.622;2.276;2023-02-20T09:20:29;100853.24;;;13.93;36.44
62592;BME280;48659;41.622;2.276;2023-02-20T09:22:58;100846.42;;;14.71;35.27
62592;BME280;48659;41.622;2.276;2023-02-20T09:25:25;100850.75;;;14.47;35.04
62592;BME280;48659;41.622;2.276;2023-02-20T09:27:53;100849.46;;;14.54;35.51
62592;BME280;48659;41.622;2.276;2023-02-20T09:30:29;100855.17;;;13.26;36.89
62592;BME280;48659;41.622;2.276;2023-02-20T09:32:56;100852.66;;;14.74;35.09
62592;BME280;48659;41.622;2.276;2023-02-20T09:35:25;100850.25;;;14.45;34.65
62592;BME280;48659;41.622;2.276;2023-02-20T09:37:53;100850.87;;;14.81;34.24
62592;BME280;48659;41.622;2.276;2023-02-20T09:40:30;100847.82;;;14.54;32.56
62592;BME280;48659;41.622;2.276;2023-02-20T09:43:08;100848.82;;;15.35;31.73
62592;BME280;48659;41.622;2.276;2023-02-20T09:45:41;100853.26;;;15.83;32.05
62592;BME280;48659;41.622;2.276;2023-02-20T09:48:21;100856.72;;;15.78;32.16
62592;BME280;48659;41.622;2.276;2023-02-20T09:50:54;100852.90;;;15.37;33.05
62592;BME280;48659;41.622;2.276;2023-02-20T09:53:27;100855.98;;;15.79;32.02
62592;BME280;48659;41.622;2.276;2023-02-20T09:55:58;100857.76;;;16.26;32.70
62592;BME280;48659;41.622;2.276;2023-02-20T09:58:39;100854.31;;;16.29;31.56
62592;BME280;48659;41.622;2.276;2023-02-20T10:01:10;100852.22;;;15.96;31.71
62592;BME280;48659;41.622;2.276;2023-02-20T10:03:52;100850.30;;;16.79;30.57
62592;BME280;48659;41.622;2.276;2023-02-20T10:06:31;100844.53;;;16.58;30.71
62592;BME280;48659;41.622;2.276;2023-02-20T10:08:59;100853.18;;;15.73;31.14
62592;BME280;48659;41.622;2.276;2023-02-20T10:11:37;100850.67;;;14.91;31.71
62592;BME280;48659;41.622;2.276;2023-02-20T10:14:20;100852.18;;;15.44;30.57
62592;BME280;48659;41.622;2.276;2023-02-20T10:16:56;100841.03;;;16.98;29.07
62592;BME280;48659;41.622;2.276;2023-02-20T10:19:40;100840.95;;;17.32;30.52
62592;BME280;48659;41.622;2.276;2023-02-20T10:22:13;100841.31;;;17.81;27.62
62592;BME280;48659;41.622;2.276;2023-02-20T10:24:53;100840.42;;;16.92;28.25
62592;BME280;48659;41.622;2.276;2023-02-20T10:27:29;100845.32;;;16.06;29.05
62592;BME280;48659;41.622;2.276;2023-02-20T10:29:59;100842.39;;;17.06;29.78
62592;BME280;48659;41.622;2.276;2023-02-20T10:32:34;100851.07;;;15.84;30.97
62592;BME280;48659;41.622;2.276;2023-02-20T10:35:07;100845.96;;;15.41;31.74
62592;BME280;48659;41.622;2.276;2023-02-20T10:37:39;100846.78;;;15.83;31.89
62592;BME280;48659;41.622;2.276;2023-02-20T10:40:15;100846.97;;;16.45;31.12
62592;BME280;48659;41.622;2.276;2023-02-20T10:42:49;100843.96;;;15.78;31.83
62592;BME280;48659;41.622;2.276;2023-02-20T10:45:25;100843.02;;;16.10;32.04
62592;BME280;48659;41.622;2.276;2023-02-20T10:48:01;100840.26;;;15.97;32.41
62592;BME280;48659;41.622;2.276;2023-02-20T10:50:36;100836.77;;;14.93;33.64
62592;BME280;48659;41.622;2.276;2023-02-20T10:53:13;100839.13;;;15.10;33.33
62592;BME280;48659;41.622;2.276;2023-02-20T10:55:47;100839.98;;;15.83;32.31
62592;BME280;48659;41.622;2.276;2023-02-20T10:58:20;100835.86;;;16.15;31.67
62592;BME280;48659;41.622;2.276;2023-02-20T11:00:58;100835.74;;;16.14;32.14
62592;BME280;48659;41.622;2.276;2023-02-20T11:03:31;100834.45;;;16.21;32.70
62592;BME280;48659;41.622;2.276;2023-02-20T11:06:01;100838.10;;;15.69;33.09
62592;BME280;48659;41.622;2.276;2023-02-20T11:08:30;100836.24;;;15.96;32.96
62592;BME280;48659;41.622;2.276;2023-02-20T11:10:59;100827.07;;;17.70;30.83
62592;BME280;48659;41.622;2.276;2023-02-20T11:13:32;100825.99;;;16.44;32.58
62592;BME280;48659;41.622;2.276;2023-02-20T11:15:59;100820.20;;;17.34;32.50
62592;BME280;48659;41.622;2.276;2023-02-20T11:18:32;100814.17;;;16.87;32.36
62592;BME280;48659;41.622;2.276;2023-02-20T11:21:01;100810.04;;;18.51;31.34
62592;BME280;48659;41.622;2.276;2023-02-20T11:23:46;100803.27;;;18.77;31.08
62592;BME280;48659;41.622;2.276;2023-02-20T11:26:24;100807.25;;;17.79;33.65
62592;BME280;48659;41.622;2.276;2023-02-20T11:28:58;100799.33;;;18.56;33.32
62592;BME280;48659;41.622;2.276;2023-02-20T11:31:26;100807.93;;;15.58;40.29
62592;BME280;48659;41.622;2.276;2023-02-20T11:33:55;100806.32;;;15.54;40.83
62592;BME280;48659;41.622;2.276;2023-02-20T11:36:25;100801.80;;;15.53;40.95
62592;BME280;48659;41.622;2.276;2023-02-20T11:38:58;100800.29;;;16.32;39.68
62592;BME280;48659;41.622;2.276;2023-02-20T11:41:30;100795.10;;;15.06;43.07
62592;BME280;48659;41.622;2.276;2023-02-20T11:44:39;100794.74;;;15.39;42.86
62592;BME280;48659;41.622;2.276;2023-02-20T11:47:16;100785.24;;;15.93;42.22
62592;BME280;48659;41.622;2.276;2023-02-20T11:49:44;100785.74;;;15.13;43.20
62592;BME280;48659;41.622;2.276;2023-02-20T11:52:17;100781.60;;;15.28;43.42
62592;BME280;48659;41.622;2.276;2023-02-20T11:54:44;100775.53;;;15.57;42.83
62592;BME280;48659;41.622;2.276;2023-02-20T11:57:28;100765.02;;;17.52;39.03
62592;BME280;48659;41.622;2.276;2023-02-20T12:00:15;100763.50;;;16.49;40.72
62592;BME280;48659;41.622;2.276;2023-02-20T12:02:49;100756.99;;;16.43;40.50
62592;BME280;48659;41.622;2.276;2023-02-20T12:05:18;100754.27;;;15.60;41.73
62592;BME280;48659;41.622;2.276;2023-02-20T12:07:55;100748.58;;;15.97;41.49
62592;BME280;48659;41.622;2.276;2023-02-20T12:10:34;100740.46;;;16.40;40.03
62592;BME280;48659;41.622;2.276;2023-02-20T12:13:04;100739.77;;;15.97;40.99
62592;BME280;48659;41.622;2.276;2023-02-20T12:15:33;100731.07;;;17.27;39.50
62592;BME280;48659;41.622;2.276;2023-02-20T12:18:13;100727.11;;;16.71;38.60
62592;BME280;48659;41.622;2.276;2023-02-20T12:20:48;100732.55;;;15.24;41.72
62592;BME280;48659;41.622;2.276;2023-02-20T12:23:32;100724.83;;;15.37;41.62
62592;BME280;48659;41.622;2.276;2023-02-20T12:26:14;100728.44;;;15.24;41.43
62592;BME280;48659;41.622;2.276;2023-02-20T12:28:54;100713.64;;;16.79;38.41
62592;BME280;48659;41.622;2.276;2023-02-20T12:31:34;100709.17;;;16.05;39.24
62592;BME280;48659;41.622;2.276;2023-02-20T12:34:18;100707.72;;;16.61;38.01
62592;BME280;48659;41.622;2.276;2023-02-20T12:36:51;100705.20;;;16.52;38.48
62592;BME280;48659;41.622;2.276;2023-02-20T12:39:29;100702.55;;;15.66;39.86
62592;BME280;48659;41.622;2.276;2023-02-20T12:42:09;100699.26;;;16.44;39.31
62592;BME280;48659;41.622;2.276;2023-02-20T12:44:55;100690.21;;;17.08;37.99
62592;BME280;48659;41.622;2.276;2023-02-20T12:47:29;100679.73;;;17.35;36.92
62592;BME280;48659;41.622;2.276;2023-02-20T12:50:16;100677.81;;;16.93;37.81
62592;BME280;48659;41.622;2.276;2023-02-20T12:53:03;100672.62;;;17.11;38.26
62592;BME280;48659;41.622;2.276;2023-02-20T12:55:39;100663.13;;;17.14;37.30
62592;BME280;48659;41.622;2.276;2023-02-20T12:58:20;100660.34;;;17.50;36.58
62592;BME280;48659;41.622;2.276;2023-02-20T13:00:52;100652.63;;;17.78;35.93
62592;BME280;48659;41.622;2.276;2023-02-20T13:03:37;100647.79;;;17.62;36.04
62592;BME280;48659;41.622;2.276;2023-02-20T13:06:06;100640.19;;;17.58;35.68
62592;BME280;48659;41.622;2.276;2023-02-20T13:08:39;100638.00;;;16.81;37.39
62592;BME280;48659;41.622;2.276;2023-02-20T13:11:13;100632.69;;;16.87;36.90
62592;BME280;48659;41.622;2.276;2023-02-20T13:13:52;100629.32;;;16.55;37.01
62592;BME280;48659;41.622;2.276;2023-02-20T13:16:29;100622.02;;;17.37;35.87
62592;BME280;48659;41.622;2.276;2023-02-20T13:19:03;100619.18;;;19.22;32.52